Kezdőlap
METAR-TAF:

METAR-TAF

Repülőterek :

Pekingi nemzetközi repülőtér

Peking, Kína

földrajzi szélesség: 39-56N, földrajzi hosszúság: 116-17E, magasság: 55 m

Jelenlegi meteorológiai megfigyelések

A jelentés 44 perccel ezelõtt készült, 01:30 UTC
Északi szél 8 kt, észak-északnyugati és észak-északkeleti között változik
Hőmérséklet 13°C
Páratartalom 47%
Légköri nyomás 1019 hPa
Látótávolság 10 km, vagy több
felhőtlen 1500 m magasságban, és nincs gomolyfelhõ

METAR: ZBAA 250130Z 36004MPS 330V030 CAVOK 13/02 Q1019 NOSIG

Idő: 10:14 (02:14 UTC)

Előrejelzés

A jelentés 4 órával és 44 perccel ezelõtt készült, 21:30 UTC
Az előrejelzés 25-én 00 óra UTC és 25-én 24 óra UTC között érvényes
Kelet-délkeleti szél 8 kt
Látótávolság: 6000 m
25-én 19 óra UTC és 25-én 24 óra UTC között ideiglenes
Látótávolság: 2000 m
enyhe esõ, Párásság

TAF: ZBAA 242130Z 2500/2524 12004MPS 6000 NSC TX18/2506Z TN06/2521Z TEMPO 2519/2524 2000 -RA BR

Meteorológiai megfigyelések és előrejelzések több, mint 4000 repülőtéren (METAR és TAF jelentéseket).

A térképen piros és sárga pontok jelzik az elérhető meteorológiai állomásokat.

Mozgassa az egeret a pont fölött, hogy megjelenjen az állomás neve.

Azután kattintson az időjárási megfigyelések és előrejelzések megtekintéséhez.

A térkép megváltoztatása: kattintson a fekete keresztel jelölt zöld gombra ráközelítéshez, a vonallal jelölt zöld gombra távolításhoz, vagy a zöld nyilakra a szomszédos térképek eléréséhez.


METAR-TAF: